KMEI/MEI METAR and TAF weather

Enter ICAO airport designator
Station Type Date Time Source
KMEI METAR 2019/04/26 03:58 UTC NOAA

KMEI 260358Z AUTO 19005KT 10SM OVC090 18/16 A2985 RMK AO2 RAE13 SLP106 P0000 T01780161


Station Type Date Time Source
KMEI Decoded METAR 2019/04/26 03:58 UTC NOAA

MERIDIAN KEY FIELD, MS, United States (KMEI) 32-20N 088-45W 89M
Apr 25, 2019 - 11:58 PM EDT / 2019.04.26 0358 UTC
Wind: from the S (190 degrees) at 6 MPH (5 KT):0
Visibility: 10 mile(s):0
Sky conditions: overcast
Precipitation last hour: A trace
Temperature: 64.0 F (17.8 C)
Dew Point: 61.0 F (16.1 C)
Relative Humidity: 89%
Pressure (altimeter): 29.85 in. Hg (1010 hPa)
ob: KMEI 260358Z AUTO 19005KT 10SM OVC090 18/16 A2985 RMK AO2 RAE13 SLP106 P0000 T01780161
cycle: 4

Station Type Date Time Source
KMEI TAF 2019/04/25 20:52 UTC NOAA

TAF
AMD KMEI 251950Z 2520/2618 18010KT 5SM -TSRA BR SCT010 BKN025CB OVC040
FM252100 19011KT P6SM VCTS BKN035CB
FM260200 22005KT P6SM VCSH BKN050
FM260800 29007KT P6SM BKN015
FM261600 34011KT P6SM FEW025 SCT250

Example: see airport list